Fabius, New York
Current Conditions -  °F | °C
As of 11:59 AM on Wednesday 22 Oct 2014 (Local Time) from KSYR Reporting Station
Overcast Overcast  
Wind Chill: 53°   Ceiling: 1800
Heat Index: 53°   Visibility: 10mi
Dew Point: 46°   Wind: 10mph
Humidity: 77%   Direction: 350°N
Pressure: 30.14"   Gusts: NA
Location:  42.84°N, 75.99°W
Report Text: KSYR 221559Z 35009KT 10SM BKN018 BKN024 OVC031 12/08 A3014 RMK AO2 BKN018 V SCT T01170078
Loading
Personal Weather Stations






























Interactive Weather Map
Tropical Storm Tracking
New forecast layout! Learn more

10-Day Weather Forecast

Advertisements
Track Severe Weather on mobile